createdAt,value
2018-07-20T00:03:27.048Z,100768.38
2018-07-20T00:08:30.621Z,100771.72
2018-07-20T00:13:34.184Z,100767.38
2018-07-20T00:18:38.455Z,100768.33
2018-07-20T00:23:42.017Z,100768.42
2018-07-20T00:28:45.689Z,100764.34
2018-07-20T00:33:49.178Z,100757.42
2018-07-20T00:38:52.914Z,100758.87
2018-07-20T00:43:56.485Z,100759.33
2018-07-20T00:49:00.117Z,100757.22
2018-07-20T00:54:03.777Z,100749.25
2018-07-20T00:59:07.418Z,100744.97
2018-07-20T01:04:11.053Z,100737.39
2018-07-20T01:09:14.608Z,100735.91
2018-07-20T01:14:18.982Z,100730.70
2018-07-20T01:19:22.576Z,100728.07
2018-07-20T01:24:26.067Z,100722.97
2018-07-20T01:29:29.614Z,100726.30
2018-07-20T01:34:33.594Z,100719.58
2018-07-20T01:39:37.300Z,100718.72
2018-07-20T01:44:40.803Z,100718.33
2018-07-20T01:49:44.472Z,100715.23
2018-07-20T01:54:48.049Z,100714.89
2018-07-20T01:59:51.591Z,100709.78
2018-07-20T02:04:55.271Z,100709.48
2018-07-20T02:09:59.221Z,100707.59
2018-07-20T02:15:02.969Z,100702.86
2018-07-20T02:20:07.385Z,100697.97
2018-07-20T02:25:12.213Z,100696.77
2018-07-20T02:30:19.743Z,100692.64
2018-07-20T02:35:23.500Z,100691.50
2018-07-20T02:40:27.128Z,100692.33
2018-07-20T02:45:31.927Z,100684.52
2018-07-20T02:50:35.491Z,100682.11
2018-07-20T02:55:39.097Z,100678.68
2018-07-20T03:00:42.656Z,100678.11
2018-07-20T03:05:46.221Z,100686.95
2018-07-20T03:10:49.980Z,100681.78
2018-07-20T03:15:54.216Z,100683.92
2018-07-20T03:20:57.869Z,100681.10
2018-07-20T03:26:01.382Z,100681.37
2018-07-20T03:31:04.978Z,100674.81
2018-07-20T03:36:08.456Z,100674.61
2018-07-20T03:41:12.096Z,100677.34
2018-07-20T03:46:15.666Z,100663.67
2018-07-20T03:51:19.235Z,100665.67
2018-07-20T03:56:22.916Z,100662.06
2018-07-20T04:01:26.460Z,100662.69
2018-07-20T04:06:29.993Z,100651.50
2018-07-20T04:11:33.518Z,100648.73
2018-07-20T04:16:37.409Z,100647.85
2018-07-20T04:21:41.029Z,100645.01
2018-07-20T04:26:44.972Z,100646.30
2018-07-20T04:31:48.585Z,100648.64
2018-07-20T04:36:53.375Z,100642.14
2018-07-20T04:41:56.978Z,100644.37
2018-07-20T04:47:00.597Z,100645.16
2018-07-20T04:52:05.177Z,100638.28
2018-07-20T04:57:08.989Z,100641.20
2018-07-20T05:02:14.564Z,100639.89
2018-07-20T05:07:18.236Z,100639.68
2018-07-20T05:12:21.809Z,100639.59
2018-07-20T05:17:25.486Z,100640.68
2018-07-20T05:22:30.572Z,100646.42
2018-07-20T05:27:34.104Z,100644.96
2018-07-20T05:32:37.862Z,100637.23
2018-07-20T05:37:41.269Z,100635.30
2018-07-20T05:42:44.918Z,100642.58
2018-07-20T05:47:48.464Z,100637.30
2018-07-20T05:52:52.108Z,100633.53
2018-07-20T05:57:55.690Z,100629.11
2018-07-20T06:02:59.625Z,100632.94
2018-07-20T06:08:03.111Z,100634.73
2018-07-20T06:13:06.780Z,100631.62
2018-07-20T06:18:11.426Z,100639.17
2018-07-20T06:23:14.955Z,100633.77
2018-07-20T06:28:18.527Z,100633.39
2018-07-20T06:33:22.442Z,100633.80
2018-07-20T06:38:26.984Z,100635.64
2018-07-20T06:43:30.510Z,100635.88
2018-07-20T06:48:34.180Z,100642.52
2018-07-20T06:53:37.712Z,100638.18
2018-07-20T06:58:41.253Z,100626.55
2018-07-20T07:03:45.915Z,100635.28
2018-07-20T07:08:49.400Z,100641.70
2018-07-20T07:13:53.013Z,100621.81
2018-07-20T07:18:56.819Z,100626.16
2018-07-20T07:24:00.683Z,100620.72
2018-07-20T07:29:04.246Z,100618.80
2018-07-20T07:34:07.807Z,100608.61
2018-07-20T07:39:12.587Z,100609.77
2018-07-20T07:44:16.125Z,100611.26
2018-07-20T07:49:19.927Z,100612.00
2018-07-20T07:54:25.917Z,100612.88
2018-07-20T07:59:29.463Z,100603.83
2018-07-20T08:04:33.147Z,100606.00
2018-07-20T08:09:36.760Z,100603.30
2018-07-20T08:14:40.727Z,100605.63
2018-07-20T08:19:45.140Z,100604.38
2018-07-20T08:24:49.088Z,100596.81
2018-07-20T08:29:52.624Z,100580.44
2018-07-20T08:34:56.360Z,100593.06
2018-07-20T08:39:59.921Z,100584.33
2018-07-20T08:45:03.543Z,100574.34
2018-07-20T08:50:07.235Z,100570.86
2018-07-20T08:55:10.783Z,100568.60
2018-07-20T09:00:14.922Z,100564.95
2018-07-20T09:05:19.004Z,100569.70
2018-07-20T09:10:22.460Z,100564.72
2018-07-20T09:15:26.022Z,100567.13
2018-07-20T09:20:30.071Z,100562.14
2018-07-20T09:25:33.655Z,100561.20
2018-07-20T09:30:37.149Z,100557.89
2018-07-20T09:35:40.683Z,100556.86
2018-07-20T09:40:44.216Z,100556.95
2018-07-20T09:45:52.009Z,100554.06
2018-07-20T09:50:55.504Z,100546.06
2018-07-20T09:55:59.058Z,100542.54
2018-07-20T10:01:02.538Z,100544.56
2018-07-20T10:06:06.278Z,100542.58
2018-07-20T10:11:09.730Z,100542.73
2018-07-20T10:16:13.877Z,100536.89
2018-07-20T10:21:17.986Z,100532.85
2018-07-20T10:26:23.076Z,100537.66
2018-07-20T10:31:27.409Z,100522.11
2018-07-20T10:36:30.960Z,100518.47
2018-07-20T10:41:34.474Z,100517.37
2018-07-20T10:46:38.782Z,100513.73
2018-07-20T10:51:42.274Z,100516.52
2018-07-20T10:56:45.900Z,100511.69
2018-07-20T11:01:49.375Z,100510.26
2018-07-20T11:06:53.150Z,100503.41
2018-07-20T11:11:56.624Z,100504.45
2018-07-20T11:17:00.918Z,100493.60
2018-07-20T11:22:04.407Z,100491.67
2018-07-20T11:27:08.044Z,100481.95
2018-07-20T11:32:12.211Z,100485.89
2018-07-20T11:37:15.998Z,100482.79
2018-07-20T11:42:19.977Z,100481.25
2018-07-20T11:47:23.745Z,100464.91
2018-07-20T11:52:27.183Z,100448.03
2018-07-20T11:57:30.779Z,100445.92
2018-07-20T12:02:34.354Z,100449.27
2018-07-20T12:07:37.885Z,100445.09
2018-07-20T12:12:41.373Z,100444.09
2018-07-20T12:17:44.864Z,100441.45
2018-07-20T12:22:48.375Z,100435.08
2018-07-20T12:27:51.928Z,100425.56
2018-07-20T12:32:55.867Z,100417.54
2018-07-20T12:38:00.119Z,100402.25
2018-07-20T12:43:03.773Z,100407.16
2018-07-20T12:48:08.046Z,100404.55
2018-07-20T12:53:11.747Z,100397.31
2018-07-20T12:58:15.292Z,100396.62
2018-07-20T13:03:18.850Z,100396.94
2018-07-20T13:08:22.577Z,100388.58
2018-07-20T13:13:27.705Z,100386.34
2018-07-20T13:18:31.253Z,100386.96
2018-07-20T13:23:37.555Z,100381.43
2018-07-20T13:28:42.270Z,100376.23
2018-07-20T13:33:45.819Z,100378.42
2018-07-20T13:38:49.581Z,100365.19
2018-07-20T13:43:53.056Z,100350.61
2018-07-20T13:48:58.721Z,100350.42
2018-07-20T13:54:02.177Z,100345.84
2018-07-20T13:59:05.947Z,100343.48
2018-07-20T14:04:10.579Z,100332.22
2018-07-20T14:09:14.220Z,100326.08
2018-07-20T14:14:17.705Z,100322.37
2018-07-20T14:19:21.217Z,100315.96
2018-07-20T14:24:24.719Z,100307.58
2018-07-20T14:29:28.301Z,100311.92
2018-07-20T14:34:31.902Z,100310.88
2018-07-20T14:39:35.438Z,100306.59
2018-07-20T14:44:39.870Z,100309.62
2018-07-20T14:49:43.526Z,100304.98
2018-07-20T14:54:47.148Z,100305.55
2018-07-20T14:59:51.812Z,100304.20
2018-07-20T15:04:55.337Z,100294.73
2018-07-20T15:09:59.038Z,100287.86
2018-07-20T15:15:03.393Z,100279.15
2018-07-20T15:20:07.821Z,100277.64
2018-07-20T15:25:11.288Z,100269.29
2018-07-20T15:30:18.345Z,100268.89
2018-07-20T15:35:22.165Z,100265.24
2018-07-20T15:40:25.748Z,100262.00
2018-07-20T15:45:30.049Z,100258.77
2018-07-20T15:50:33.590Z,100251.23
2018-07-20T15:55:37.052Z,100256.12
2018-07-20T16:00:40.663Z,100246.11
2018-07-20T16:05:44.269Z,100246.91
2018-07-20T16:10:48.041Z,100248.31
2018-07-20T16:15:51.561Z,100242.15
2018-07-20T16:20:56.076Z,100237.72
2018-07-20T16:25:59.626Z,100237.67
2018-07-20T16:31:03.263Z,100235.80
2018-07-20T16:36:06.828Z,100224.95
2018-07-20T16:41:10.437Z,100228.92
2018-07-20T16:46:14.298Z,100223.45
2018-07-20T16:51:18.970Z,100222.97
2018-07-20T16:56:22.542Z,100212.81
2018-07-20T17:01:26.072Z,100216.44
2018-07-20T17:06:29.580Z,100217.23
2018-07-20T17:11:33.333Z,100210.06
2018-07-20T17:16:37.337Z,100210.19
2018-07-20T17:21:40.901Z,100200.35
2018-07-20T17:26:44.357Z,100197.27
2018-07-20T17:31:47.889Z,100196.77
2018-07-20T17:36:51.445Z,100194.61
2018-07-20T17:41:54.963Z,100189.02
2018-07-20T17:46:58.429Z,100189.67
2018-07-20T17:52:01.990Z,100188.50
2018-07-20T17:57:05.491Z,100191.06
2018-07-20T18:02:10.671Z,100175.84
2018-07-20T18:07:14.490Z,100179.20
2018-07-20T18:12:18.030Z,100182.00
2018-07-20T18:17:21.523Z,100171.91
2018-07-20T18:22:25.064Z,100176.56
2018-07-20T18:27:28.643Z,100176.20
2018-07-20T18:32:32.432Z,100190.92
2018-07-20T18:37:36.093Z,100182.27
2018-07-20T18:42:39.604Z,100191.68
2018-07-20T18:47:43.199Z,100188.55
2018-07-20T18:52:46.736Z,100193.58
2018-07-20T18:57:50.257Z,100195.85
2018-07-20T19:02:53.797Z,100194.92
2018-07-20T19:07:57.379Z,100195.57
2018-07-20T19:13:00.940Z,100197.55
2018-07-20T19:18:04.484Z,100193.56
2018-07-20T19:23:08.261Z,100188.71
2018-07-20T19:28:11.829Z,100189.22
2018-07-20T19:33:15.408Z,100203.81
2018-07-20T19:38:19.734Z,100205.38
2018-07-20T19:43:23.393Z,100218.48
2018-07-20T19:48:26.956Z,100223.08
2018-07-20T19:53:32.213Z,100229.12
2018-07-20T19:58:35.734Z,100228.34
2018-07-20T20:03:39.456Z,100231.83
2018-07-20T20:08:44.602Z,100227.19
2018-07-20T20:13:48.254Z,100220.88
2018-07-20T20:18:52.797Z,100223.25
2018-07-20T20:23:57.251Z,100222.26
2018-07-20T20:29:00.863Z,100218.66
2018-07-20T20:34:04.418Z,100219.81
2018-07-20T20:39:11.489Z,100214.05
2018-07-20T20:44:15.304Z,100219.63
2018-07-20T20:49:18.949Z,100225.16
2018-07-20T20:54:22.491Z,100223.70
2018-07-20T20:59:26.091Z,100230.13
2018-07-20T21:04:29.864Z,100218.30
2018-07-20T21:09:33.425Z,100206.41
2018-07-20T21:14:38.338Z,100208.79
2018-07-20T21:19:41.906Z,100199.87
2018-07-20T21:24:45.504Z,100201.09
2018-07-20T21:29:49.113Z,100209.42
2018-07-20T21:34:53.317Z,100198.47
2018-07-20T21:39:56.803Z,100197.78
2018-07-20T21:45:00.368Z,100206.76
2018-07-20T21:50:03.945Z,100211.02
2018-07-20T21:55:08.980Z,100211.19
2018-07-20T22:00:17.469Z,100219.89
2018-07-20T22:05:21.068Z,100224.28
2018-07-20T22:10:25.029Z,100223.31
2018-07-20T22:15:29.305Z,100224.81
2018-07-20T22:20:32.868Z,100229.24
2018-07-20T22:25:36.418Z,100219.81
2018-07-20T22:30:39.974Z,100228.58
2018-07-20T22:35:43.548Z,100237.58
2018-07-20T22:40:47.099Z,100232.94
2018-07-20T22:45:50.653Z,100233.20
2018-07-20T22:50:54.212Z,100233.70
2018-07-20T22:55:57.749Z,100232.14
2018-07-20T23:01:01.698Z,100236.52
2018-07-20T23:06:05.281Z,100238.80
2018-07-20T23:11:08.842Z,100230.70
2018-07-20T23:16:13.738Z,100238.67
2018-07-20T23:21:17.289Z,100239.08
2018-07-20T23:26:21.860Z,100232.62
2018-07-20T23:31:25.553Z,100230.66
2018-07-20T23:36:29.112Z,100240.56
2018-07-20T23:41:32.602Z,100227.22
2018-07-20T23:46:36.197Z,100222.70
2018-07-20T23:51:40.160Z,100226.98
2018-07-20T23:56:43.678Z,100222.23
